sensor_id;sensor_type;location;lat;lon;timestamp;temperature;humidity
81216;DHT22;70688;52.492;13.420;2023-06-22T00:00:48;23.10;54.30
81216;DHT22;70688;52.492;13.420;2023-06-22T00:03:14;23.10;54.20
81216;DHT22;70688;52.492;13.420;2023-06-22T00:05:39;23.10;54.30
81216;DHT22;70688;52.492;13.420;2023-06-22T00:08:05;22.90;55.00
81216;DHT22;70688;52.492;13.420;2023-06-22T00:10:31;23.00;54.60
81216;DHT22;70688;52.492;13.420;2023-06-22T00:12:56;23.20;53.80
81216;DHT22;70688;52.492;13.420;2023-06-22T00:15:22;23.00;54.30
81216;DHT22;70688;52.492;13.420;2023-06-22T00:17:48;22.90;54.90
81216;DHT22;70688;52.492;13.420;2023-06-22T00:20:14;23.00;54.60
81216;DHT22;70688;52.492;13.420;2023-06-22T00:22:40;22.80;55.00
81216;DHT22;70688;52.492;13.420;2023-06-22T00:25:07;22.80;55.50
81216;DHT22;70688;52.492;13.420;2023-06-22T00:27:32;22.70;55.70
81216;DHT22;70688;52.492;13.420;2023-06-22T00:29:58;22.70;55.90
81216;DHT22;70688;52.492;13.420;2023-06-22T00:32:24;22.60;56.30
81216;DHT22;70688;52.492;13.420;2023-06-22T00:34:49;22.70;55.90
81216;DHT22;70688;52.492;13.420;2023-06-22T00:37:16;22.90;55.50
81216;DHT22;70688;52.492;13.420;2023-06-22T00:39:42;23.00;55.10
81216;DHT22;70688;52.492;13.420;2023-06-22T00:42:08;23.00;54.70
81216;DHT22;70688;52.492;13.420;2023-06-22T00:44:35;22.90;55.00
81216;DHT22;70688;52.492;13.420;2023-06-22T00:47:02;22.80;55.50
81216;DHT22;70688;52.492;13.420;2023-06-22T00:49:28;22.60;56.50
81216;DHT22;70688;52.492;13.420;2023-06-22T00:51:54;22.50;56.90
81216;DHT22;70688;52.492;13.420;2023-06-22T00:54:22;22.50;56.90
81216;DHT22;70688;52.492;13.420;2023-06-22T00:56:53;22.60;56.90
81216;DHT22;70688;52.492;13.420;2023-06-22T00:59:22;22.60;56.70
81216;DHT22;70688;52.492;13.420;2023-06-22T01:01:48;22.70;56.30
81216;DHT22;70688;52.492;13.420;2023-06-22T01:04:15;22.70;56.40
81216;DHT22;70688;52.492;13.420;2023-06-22T01:06:54;22.50;57.20
81216;DHT22;70688;52.492;13.420;2023-06-22T01:09:35;22.40;57.50
81216;DHT22;70688;52.492;13.420;2023-06-22T01:12:06;22.40;57.50
81216;DHT22;70688;52.492;13.420;2023-06-22T01:14:41;22.50;57.30
81216;DHT22;70688;52.492;13.420;2023-06-22T01:17:08;22.50;57.60
81216;DHT22;70688;52.492;13.420;2023-06-22T01:19:50;22.30;58.40
81216;DHT22;70688;52.492;13.420;2023-06-22T01:22:23;22.10;59.30
81216;DHT22;70688;52.492;13.420;2023-06-22T01:25:24;22.00;59.80
81216;DHT22;70688;52.492;13.420;2023-06-22T01:30:41;22.30;59.20
81216;DHT22;70688;52.492;13.420;2023-06-22T01:33:11;22.20;59.20
81216;DHT22;70688;52.492;13.420;2023-06-22T01:35:39;22.10;60.40
81216;DHT22;70688;52.492;13.420;2023-06-22T01:38:05;22.20;59.60
81216;DHT22;70688;52.492;13.420;2023-06-22T01:40:32;22.20;59.60
81216;DHT22;70688;52.492;13.420;2023-06-22T01:43:00;22.70;58.00
81216;DHT22;70688;52.492;13.420;2023-06-22T01:45:27;22.50;58.20
81216;DHT22;70688;52.492;13.420;2023-06-22T01:47:53;22.20;59.30
81216;DHT22;70688;52.492;13.420;2023-06-22T01:50:20;22.00;60.60
81216;DHT22;70688;52.492;13.420;2023-06-22T01:52:46;21.90;61.20
81216;DHT22;70688;52.492;13.420;2023-06-22T01:55:11;22.00;60.90
81216;DHT22;70688;52.492;13.420;2023-06-22T01:57:37;22.20;60.10
81216;DHT22;70688;52.492;13.420;2023-06-22T02:00:04;22.30;59.60
81216;DHT22;70688;52.492;13.420;2023-06-22T02:02:36;22.20;60.30
81216;DHT22;70688;52.492;13.420;2023-06-22T02:05:09;22.30;59.60
81216;DHT22;70688;52.492;13.420;2023-06-22T02:10:32;21.80;61.70
81216;DHT22;70688;52.492;13.420;2023-06-22T02:13:01;21.90;62.20
81216;DHT22;70688;52.492;13.420;2023-06-22T02:15:28;22.20;61.10
81216;DHT22;70688;52.492;13.420;2023-06-22T02:17:54;22.50;59.90
81216;DHT22;70688;52.492;13.420;2023-06-22T02:20:20;22.30;60.20
81216;DHT22;70688;52.492;13.420;2023-06-22T02:22:45;22.50;59.80
81216;DHT22;70688;52.492;13.420;2023-06-22T02:25:11;22.50;59.50
81216;DHT22;70688;52.492;13.420;2023-06-22T02:27:37;22.50;59.50
81216;DHT22;70688;52.492;13.420;2023-06-22T02:30:09;22.40;60.20
81216;DHT22;70688;52.492;13.420;2023-06-22T02:32:35;22.20;61.10
81216;DHT22;70688;52.492;13.420;2023-06-22T02:35:01;22.50;60.40
81216;DHT22;70688;52.492;13.420;2023-06-22T02:37:30;22.60;59.80
81216;DHT22;70688;52.492;13.420;2023-06-22T02:39:56;22.40;60.20
81216;DHT22;70688;52.492;13.420;2023-06-22T02:42:21;22.30;61.30
81216;DHT22;70688;52.492;13.420;2023-06-22T02:44:47;22.50;60.50
81216;DHT22;70688;52.492;13.420;2023-06-22T02:47:13;22.50;60.20
81216;DHT22;70688;52.492;13.420;2023-06-22T02:49:39;22.40;60.90
81216;DHT22;70688;52.492;13.420;2023-06-22T02:52:04;22.50;60.30
81216;DHT22;70688;52.492;13.420;2023-06-22T02:54:30;22.50;60.40
81216;DHT22;70688;52.492;13.420;2023-06-22T02:56:56;22.00;62.20
81216;DHT22;70688;52.492;13.420;2023-06-22T02:59:21;22.00;63.10
81216;DHT22;70688;52.492;13.420;2023-06-22T03:01:50;21.90;63.40
81216;DHT22;70688;52.492;13.420;2023-06-22T03:04:16;21.60;64.30
81216;DHT22;70688;52.492;13.420;2023-06-22T03:06:41;21.90;63.70
81216;DHT22;70688;52.492;13.420;2023-06-22T03:09:07;21.80;63.20
81216;DHT22;70688;52.492;13.420;2023-06-22T03:11:36;22.00;63.10
81216;DHT22;70688;52.492;13.420;2023-06-22T03:14:02;22.30;61.60
81216;DHT22;70688;52.492;13.420;2023-06-22T03:16:28;22.40;60.70
81216;DHT22;70688;52.492;13.420;2023-06-22T03:18:54;22.50;60.70
81216;DHT22;70688;52.492;13.420;2023-06-22T03:21:22;22.20;61.10
81216;DHT22;70688;52.492;13.420;2023-06-22T03:23:47;22.20;60.60
81216;DHT22;70688;52.492;13.420;2023-06-22T03:26:17;22.30;59.70
81216;DHT22;70688;52.492;13.420;2023-06-22T03:28:43;22.30;59.40
81216;DHT22;70688;52.492;13.420;2023-06-22T03:31:08;22.00;59.90
81216;DHT22;70688;52.492;13.420;2023-06-22T03:33:34;22.30;58.90
81216;DHT22;70688;52.492;13.420;2023-06-22T03:36:00;22.40;58.60
81216;DHT22;70688;52.492;13.420;2023-06-22T03:38:26;22.30;58.70
81216;DHT22;70688;52.492;13.420;2023-06-22T03:40:51;22.30;59.10
81216;DHT22;70688;52.492;13.420;2023-06-22T03:43:17;22.30;59.60
81216;DHT22;70688;52.492;13.420;2023-06-22T03:45:42;22.30;60.00
81216;DHT22;70688;52.492;13.420;2023-06-22T03:48:11;22.50;59.30
81216;DHT22;70688;52.492;13.420;2023-06-22T03:50:36;22.50;59.00
81216;DHT22;70688;52.492;13.420;2023-06-22T03:53:02;22.70;58.10
81216;DHT22;70688;52.492;13.420;2023-06-22T03:55:27;22.60;57.70
81216;DHT22;70688;52.492;13.420;2023-06-22T03:57:53;22.80;56.40
81216;DHT22;70688;52.492;13.420;2023-06-22T04:00:23;22.60;56.80
81216;DHT22;70688;52.492;13.420;2023-06-22T04:02:48;22.50;57.40
81216;DHT22;70688;52.492;13.420;2023-06-22T04:05:14;22.80;56.00
81216;DHT22;70688;52.492;13.420;2023-06-22T04:07:40;22.80;55.90
81216;DHT22;70688;52.492;13.420;2023-06-22T04:10:06;23.00;54.40
81216;DHT22;70688;52.492;13.420;2023-06-22T04:12:32;22.90;53.60
81216;DHT22;70688;52.492;13.420;2023-06-22T04:14:58;22.60;54.80
81216;DHT22;70688;52.492;13.420;2023-06-22T04:17:24;23.00;53.40
81216;DHT22;70688;52.492;13.420;2023-06-22T04:19:51;23.30;53.00
81216;DHT22;70688;52.492;13.420;2023-06-22T04:22:16;23.30;53.40
81216;DHT22;70688;52.492;13.420;2023-06-22T04:24:42;23.20;53.70
81216;DHT22;70688;52.492;13.420;2023-06-22T04:27:07;23.20;54.20
81216;DHT22;70688;52.492;13.420;2023-06-22T04:29:33;23.50;52.80
81216;DHT22;70688;52.492;13.420;2023-06-22T04:31:59;23.10;54.10
81216;DHT22;70688;52.492;13.420;2023-06-22T04:34:31;23.10;54.20
81216;DHT22;70688;52.492;13.420;2023-06-22T04:36:57;23.30;53.60
81216;DHT22;70688;52.492;13.420;2023-06-22T04:39:23;23.40;53.70
81216;DHT22;70688;52.492;13.420;2023-06-22T04:41:49;23.60;53.40
81216;DHT22;70688;52.492;13.420;2023-06-22T04:44:18;24.00;52.60
81216;DHT22;70688;52.492;13.420;2023-06-22T04:47:00;24.30;51.60
81216;DHT22;70688;52.492;13.420;2023-06-22T04:49:27;24.50;50.70
81216;DHT22;70688;52.492;13.420;2023-06-22T04:51:58;24.70;50.20
81216;DHT22;70688;52.492;13.420;2023-06-22T04:54:24;24.40;49.60
81216;DHT22;70688;52.492;13.420;2023-06-22T04:56:50;24.50;49.20
81216;DHT22;70688;52.492;13.420;2023-06-22T04:59:22;24.20;48.50
81216;DHT22;70688;52.492;13.420;2023-06-22T05:01:48;24.10;49.60
81216;DHT22;70688;52.492;13.420;2023-06-22T05:04:13;24.50;49.90
81216;DHT22;70688;52.492;13.420;2023-06-22T05:06:39;24.90;47.40
81216;DHT22;70688;52.492;13.420;2023-06-22T05:09:05;24.70;48.00
81216;DHT22;70688;52.492;13.420;2023-06-22T05:11:31;24.70;47.60
81216;DHT22;70688;52.492;13.420;2023-06-22T05:13:57;24.80;47.60
81216;DHT22;70688;52.492;13.420;2023-06-22T05:16:23;24.70;47.80
81216;DHT22;70688;52.492;13.420;2023-06-22T05:18:58;24.50;48.10
81216;DHT22;70688;52.492;13.420;2023-06-22T05:21:26;23.90;49.40
81216;DHT22;70688;52.492;13.420;2023-06-22T05:23:53;23.80;50.40
81216;DHT22;70688;52.492;13.420;2023-06-22T05:26:19;23.80;50.90
81216;DHT22;70688;52.492;13.420;2023-06-22T05:28:46;23.70;51.40
81216;DHT22;70688;52.492;13.420;2023-06-22T05:31:15;24.10;49.70
81216;DHT22;70688;52.492;13.420;2023-06-22T05:33:44;24.40;49.00
81216;DHT22;70688;52.492;13.420;2023-06-22T05:36:10;24.50;48.90
81216;DHT22;70688;52.492;13.420;2023-06-22T05:38:36;24.70;48.30
81216;DHT22;70688;52.492;13.420;2023-06-22T05:41:02;24.40;49.10
81216;DHT22;70688;52.492;13.420;2023-06-22T05:43:28;24.30;49.60
81216;DHT22;70688;52.492;13.420;2023-06-22T05:45:53;24.30;49.60
81216;DHT22;70688;52.492;13.420;2023-06-22T05:48:19;24.60;48.10
81216;DHT22;70688;52.492;13.420;2023-06-22T05:50:45;24.40;48.60
81216;DHT22;70688;52.492;13.420;2023-06-22T05:53:10;24.20;49.10
81216;DHT22;70688;52.492;13.420;2023-06-22T05:55:36;24.20;49.50
81216;DHT22;70688;52.492;13.420;2023-06-22T05:58:02;24.10;49.50
81216;DHT22;70688;52.492;13.420;2023-06-22T06:00:31;24.00;50.20
81216;DHT22;70688;52.492;13.420;2023-06-22T06:02:56;24.10;50.20
81216;DHT22;70688;52.492;13.420;2023-06-22T06:05:22;24.00;50.50
81216;DHT22;70688;52.492;13.420;2023-06-22T06:07:51;23.90;50.00
81216;DHT22;70688;52.492;13.420;2023-06-22T06:10:16;24.00;49.90
81216;DHT22;70688;52.492;13.420;2023-06-22T06:12:42;24.00;50.00
81216;DHT22;70688;52.492;13.420;2023-06-22T06:15:08;24.30;48.80
81216;DHT22;70688;52.492;13.420;2023-06-22T06:17:33;24.50;48.20
81216;DHT22;70688;52.492;13.420;2023-06-22T06:19:59;24.90;47.20
81216;DHT22;70688;52.492;13.420;2023-06-22T06:22:25;24.60;47.80
81216;DHT22;70688;52.492;13.420;2023-06-22T06:24:51;24.80;47.80
81216;DHT22;70688;52.492;13.420;2023-06-22T06:27:17;24.80;47.90
81216;DHT22;70688;52.492;13.420;2023-06-22T06:29:44;25.00;46.80
81216;DHT22;70688;52.492;13.420;2023-06-22T06:32:11;25.40;45.90
81216;DHT22;70688;52.492;13.420;2023-06-22T06:34:37;25.60;44.50
81216;DHT22;70688;52.492;13.420;2023-06-22T06:37:03;25.40;45.50
81216;DHT22;70688;52.492;13.420;2023-06-22T06:39:29;25.40;45.00
81216;DHT22;70688;52.492;13.420;2023-06-22T06:41:54;25.70;45.00
81216;DHT22;70688;52.492;13.420;2023-06-22T06:44:20;26.20;43.60
81216;DHT22;70688;52.492;13.420;2023-06-22T06:46:46;26.50;42.50
81216;DHT22;70688;52.492;13.420;2023-06-22T06:49:12;27.00;41.40
81216;DHT22;70688;52.492;13.420;2023-06-22T06:51:38;27.20;39.40
81216;DHT22;70688;52.492;13.420;2023-06-22T06:54:04;26.60;40.50
81216;DHT22;70688;52.492;13.420;2023-06-22T06:56:29;26.30;40.80
81216;DHT22;70688;52.492;13.420;2023-06-22T06:58:55;26.20;41.10
81216;DHT22;70688;52.492;13.420;2023-06-22T07:01:21;26.10;42.10
81216;DHT22;70688;52.492;13.420;2023-06-22T07:03:47;26.00;41.80
81216;DHT22;70688;52.492;13.420;2023-06-22T07:06:13;26.30;41.30
81216;DHT22;70688;52.492;13.420;2023-06-22T07:08:39;26.90;39.50
81216;DHT22;70688;52.492;13.420;2023-06-22T07:11:05;27.30;39.20
81216;DHT22;70688;52.492;13.420;2023-06-22T07:13:31;27.90;37.80
81216;DHT22;70688;52.492;13.420;2023-06-22T07:15:57;28.50;36.40
81216;DHT22;70688;52.492;13.420;2023-06-22T07:18:39;29.00;35.50
81216;DHT22;70688;52.492;13.420;2023-06-22T07:21:05;29.70;33.30
81216;DHT22;70688;52.492;13.420;2023-06-22T07:23:32;29.90;32.50
81216;DHT22;70688;52.492;13.420;2023-06-22T07:25:58;30.20;31.30
81216;DHT22;70688;52.492;13.420;2023-06-22T07:28:27;29.80;31.90
81216;DHT22;70688;52.492;13.420;2023-06-22T07:30:52;29.80;32.60
81216;DHT22;70688;52.492;13.420;2023-06-22T07:33:18;29.80;32.50
81216;DHT22;70688;52.492;13.420;2023-06-22T07:35:45;29.60;32.40
81216;DHT22;70688;52.492;13.420;2023-06-22T07:38:13;29.20;33.10
81216;DHT22;70688;52.492;13.420;2023-06-22T07:40:40;28.30;34.60
81216;DHT22;70688;52.492;13.420;2023-06-22T07:43:07;28.30;34.40
81216;DHT22;70688;52.492;13.420;2023-06-22T07:45:32;28.60;33.90
81216;DHT22;70688;52.492;13.420;2023-06-22T07:48:00;28.70;32.90
81216;DHT22;70688;52.492;13.420;2023-06-22T07:50:26;29.30;31.60
81216;DHT22;70688;52.492;13.420;2023-06-22T07:52:51;29.40;31.50
81216;DHT22;70688;52.492;13.420;2023-06-22T07:55:18;30.00;30.80
81216;DHT22;70688;52.492;13.420;2023-06-22T07:57:44;30.70;29.20
81216;DHT22;70688;52.492;13.420;2023-06-22T08:00:10;30.40;30.20
81216;DHT22;70688;52.492;13.420;2023-06-22T08:02:40;30.10;30.70
81216;DHT22;70688;52.492;13.420;2023-06-22T08:05:10;29.60;31.10
81216;DHT22;70688;52.492;13.420;2023-06-22T08:07:36;29.10;30.90
81216;DHT22;70688;52.492;13.420;2023-06-22T08:10:06;28.50;30.20
81216;DHT22;70688;52.492;13.420;2023-06-22T08:12:40;28.10;31.70
81216;DHT22;70688;52.492;13.420;2023-06-22T08:15:07;27.80;31.70
81216;DHT22;70688;52.492;13.420;2023-06-22T08:17:39;27.60;32.20
81216;DHT22;70688;52.492;13.420;2023-06-22T08:20:05;27.60;32.70
81216;DHT22;70688;52.492;13.420;2023-06-22T08:22:39;27.30;33.30
81216;DHT22;70688;52.492;13.420;2023-06-22T08:25:05;27.20;33.40
81216;DHT22;70688;52.492;13.420;2023-06-22T08:27:31;27.30;33.80
81216;DHT22;70688;52.492;13.420;2023-06-22T08:29:58;27.40;33.50
81216;DHT22;70688;52.492;13.420;2023-06-22T08:32:25;27.20;34.50
81216;DHT22;70688;52.492;13.420;2023-06-22T08:34:53;27.30;34.60
81216;DHT22;70688;52.492;13.420;2023-06-22T08:37:18;27.30;35.00
81216;DHT22;70688;52.492;13.420;2023-06-22T08:39:44;27.20;35.40
81216;DHT22;70688;52.492;13.420;2023-06-22T08:42:10;27.10;35.10
81216;DHT22;70688;52.492;13.420;2023-06-22T08:44:35;27.10;35.30
81216;DHT22;70688;52.492;13.420;2023-06-22T08:47:01;27.10;35.80
81216;DHT22;70688;52.492;13.420;2023-06-22T08:49:27;27.10;35.50
81216;DHT22;70688;52.492;13.420;2023-06-22T08:51:53;27.20;36.10
81216;DHT22;70688;52.492;13.420;2023-06-22T08:54:21;27.40;35.40
81216;DHT22;70688;52.492;13.420;2023-06-22T08:56:47;27.40;34.90
81216;DHT22;70688;52.492;13.420;2023-06-22T08:59:12;27.70;34.30
81216;DHT22;70688;52.492;13.420;2023-06-22T09:01:38;27.90;32.10
81216;DHT22;70688;52.492;13.420;2023-06-22T09:04:04;28.80;30.40
81216;DHT22;70688;52.492;13.420;2023-06-22T09:06:31;29.40;29.30
81216;DHT22;70688;52.492;13.420;2023-06-22T09:08:57;29.30;28.90
81216;DHT22;70688;52.492;13.420;2023-06-22T09:11:25;29.40;28.90
81216;DHT22;70688;52.492;13.420;2023-06-22T09:13:50;29.30;29.20
81216;DHT22;70688;52.492;13.420;2023-06-22T09:16:17;29.40;29.20
81216;DHT22;70688;52.492;13.420;2023-06-22T09:18:47;29.20;29.20
81216;DHT22;70688;52.492;13.420;2023-06-22T09:21:12;28.80;29.70
81216;DHT22;70688;52.492;13.420;2023-06-22T09:23:38;28.30;29.80
81216;DHT22;70688;52.492;13.420;2023-06-22T09:26:04;28.40;30.30
81216;DHT22;70688;52.492;13.420;2023-06-22T09:28:29;28.00;30.00
81216;DHT22;70688;52.492;13.420;2023-06-22T09:30:55;28.50;30.10
81216;DHT22;70688;52.492;13.420;2023-06-22T09:33:24;28.80;29.40
81216;DHT22;70688;52.492;13.420;2023-06-22T09:35:49;28.60;31.10
81216;DHT22;70688;52.492;13.420;2023-06-22T09:38:16;28.30;31.00
81216;DHT22;70688;52.492;13.420;2023-06-22T09:40:42;28.70;30.40
81216;DHT22;70688;52.492;13.420;2023-06-22T09:43:08;28.70;30.90
81216;DHT22;70688;52.492;13.420;2023-06-22T09:45:33;28.90;30.80
81216;DHT22;70688;52.492;13.420;2023-06-22T09:47:59;28.80;31.00
81216;DHT22;70688;52.492;13.420;2023-06-22T09:50:25;29.30;30.60
81216;DHT22;70688;52.492;13.420;2023-06-22T09:52:50;29.50;30.50
81216;DHT22;70688;52.492;13.420;2023-06-22T09:55:20;29.40;30.30
81216;DHT22;70688;52.492;13.420;2023-06-22T09:57:46;29.20;30.10
81216;DHT22;70688;52.492;13.420;2023-06-22T10:00:13;28.80;30.60
81216;DHT22;70688;52.492;13.420;2023-06-22T10:02:40;29.10;30.00
81216;DHT22;70688;52.492;13.420;2023-06-22T10:05:06;29.20;30.70
81216;DHT22;70688;52.492;13.420;2023-06-22T10:07:33;28.80;30.90
81216;DHT22;70688;52.492;13.420;2023-06-22T10:09:58;28.90;31.20
81216;DHT22;70688;52.492;13.420;2023-06-22T10:12:25;28.80;32.10
81216;DHT22;70688;52.492;13.420;2023-06-22T10:14:50;28.90;31.50
81216;DHT22;70688;52.492;13.420;2023-06-22T10:17:16;28.70;32.00
81216;DHT22;70688;52.492;13.420;2023-06-22T10:19:42;28.90;32.00
81216;DHT22;70688;52.492;13.420;2023-06-22T10:22:07;28.90;31.60
81216;DHT22;70688;52.492;13.420;2023-06-22T10:24:33;28.90;32.20
81216;DHT22;70688;52.492;13.420;2023-06-22T10:26:58;29.20;31.00
81216;DHT22;70688;52.492;13.420;2023-06-22T10:29:24;28.70;32.30
81216;DHT22;70688;52.492;13.420;2023-06-22T10:31:50;28.70;33.60
81216;DHT22;70688;52.492;13.420;2023-06-22T10:34:15;29.00;32.40
81216;DHT22;70688;52.492;13.420;2023-06-22T10:36:41;29.00;31.50
81216;DHT22;70688;52.492;13.420;2023-06-22T10:39:06;28.70;31.60
81216;DHT22;70688;52.492;13.420;2023-06-22T10:41:32;28.70;31.90
81216;DHT22;70688;52.492;13.420;2023-06-22T10:43:58;28.50;32.60
81216;DHT22;70688;52.492;13.420;2023-06-22T10:46:27;28.80;32.10
81216;DHT22;70688;52.492;13.420;2023-06-22T10:48:55;28.60;31.20
81216;DHT22;70688;52.492;13.420;2023-06-22T10:51:22;29.00;31.60
81216;DHT22;70688;52.492;13.420;2023-06-22T10:53:48;29.20;30.70
81216;DHT22;70688;52.492;13.420;2023-06-22T10:56:13;29.50;29.90
81216;DHT22;70688;52.492;13.420;2023-06-22T10:58:39;29.20;30.10
81216;DHT22;70688;52.492;13.420;2023-06-22T11:01:05;29.20;30.00
81216;DHT22;70688;52.492;13.420;2023-06-22T11:03:30;29.40;29.70
81216;DHT22;70688;52.492;13.420;2023-06-22T11:05:56;29.40;29.60
81216;DHT22;70688;52.492;13.420;2023-06-22T11:08:21;29.10;30.50
81216;DHT22;70688;52.492;13.420;2023-06-22T11:10:47;28.90;30.10
81216;DHT22;70688;52.492;13.420;2023-06-22T11:13:13;28.60;30.50
81216;DHT22;70688;52.492;13.420;2023-06-22T11:15:39;28.50;31.20
81216;DHT22;70688;52.492;13.420;2023-06-22T11:18:05;28.70;30.80
81216;DHT22;70688;52.492;13.420;2023-06-22T11:20:33;28.80;31.30
81216;DHT22;70688;52.492;13.420;2023-06-22T11:23:04;28.60;30.40
81216;DHT22;70688;52.492;13.420;2023-06-22T11:25:30;28.40;30.40
81216;DHT22;70688;52.492;13.420;2023-06-22T11:27:56;28.80;30.00
81216;DHT22;70688;52.492;13.420;2023-06-22T11:30:21;28.90;29.80
81216;DHT22;70688;52.492;13.420;2023-06-22T11:32:48;29.40;29.50
81216;DHT22;70688;52.492;13.420;2023-06-22T11:35:14;29.10;29.60
81216;DHT22;70688;52.492;13.420;2023-06-22T11:37:39;29.40;29.30
81216;DHT22;70688;52.492;13.420;2023-06-22T11:40:05;29.60;29.30
81216;DHT22;70688;52.492;13.420;2023-06-22T11:42:34;29.40;29.00
81216;DHT22;70688;52.492;13.420;2023-06-22T11:45:00;29.30;29.40
81216;DHT22;70688;52.492;13.420;2023-06-22T11:47:25;29.20;29.50
81216;DHT22;70688;52.492;13.420;2023-06-22T11:49:51;28.90;30.00
81216;DHT22;70688;52.492;13.420;2023-06-22T11:52:17;29.00;29.70
81216;DHT22;70688;52.492;13.420;2023-06-22T11:54:43;28.80;30.00
81216;DHT22;70688;52.492;13.420;2023-06-22T11:57:09;28.80;30.00
81216;DHT22;70688;52.492;13.420;2023-06-22T11:59:34;28.80;30.40
81216;DHT22;70688;52.492;13.420;2023-06-22T12:02:00;29.20;29.80
81216;DHT22;70688;52.492;13.420;2023-06-22T12:04:25;29.10;29.60
81216;DHT22;70688;52.492;13.420;2023-06-22T12:06:51;29.00;29.30
81216;DHT22;70688;52.492;13.420;2023-06-22T12:09:17;29.10;29.20
81216;DHT22;70688;52.492;13.420;2023-06-22T12:11:42;29.10;29.50
81216;DHT22;70688;52.492;13.420;2023-06-22T12:14:08;29.30;29.40
81216;DHT22;70688;52.492;13.420;2023-06-22T12:16:34;29.50;29.30
81216;DHT22;70688;52.492;13.420;2023-06-22T12:18:59;29.60;29.30
81216;DHT22;70688;52.492;13.420;2023-06-22T12:21:25;29.30;29.30
81216;DHT22;70688;52.492;13.420;2023-06-22T12:23:54;29.20;29.50
81216;DHT22;70688;52.492;13.420;2023-06-22T12:26:19;29.10;29.30
81216;DHT22;70688;52.492;13.420;2023-06-22T12:28:45;29.00;29.40
81216;DHT22;70688;52.492;13.420;2023-06-22T12:31:11;28.80;29.50
81216;DHT22;70688;52.492;13.420;2023-06-22T12:33:36;28.80;30.00
81216;DHT22;70688;52.492;13.420;2023-06-22T12:36:02;28.70;30.00
81216;DHT22;70688;52.492;13.420;2023-06-22T12:38:29;28.90;29.90
81216;DHT22;70688;52.492;13.420;2023-06-22T12:40:54;28.60;30.00
81216;DHT22;70688;52.492;13.420;2023-06-22T12:43:20;28.70;30.90
81216;DHT22;70688;52.492;13.420;2023-06-22T12:45:45;28.90;29.90
81216;DHT22;70688;52.492;13.420;2023-06-22T12:48:11;29.00;29.50
81216;DHT22;70688;52.492;13.420;2023-06-22T12:50:39;28.80;30.70
81216;DHT22;70688;52.492;13.420;2023-06-22T12:53:04;28.60;31.00
81216;DHT22;70688;52.492;13.420;2023-06-22T12:55:31;28.70;30.60
81216;DHT22;70688;52.492;13.420;2023-06-22T12:57:57;28.80;30.40
81216;DHT22;70688;52.492;13.420;2023-06-22T13:00:23;29.00;29.90
81216;DHT22;70688;52.492;13.420;2023-06-22T13:02:49;29.00;30.20
81216;DHT22;70688;52.492;13.420;2023-06-22T13:05:14;28.70;30.60
81216;DHT22;70688;52.492;13.420;2023-06-22T13:07:40;28.80;30.50
81216;DHT22;70688;52.492;13.420;2023-06-22T13:10:07;29.00;30.00
81216;DHT22;70688;52.492;13.420;2023-06-22T13:12:33;28.70;30.60
81216;DHT22;70688;52.492;13.420;2023-06-22T13:14:59;28.80;31.00
81216;DHT22;70688;52.492;13.420;2023-06-22T13:17:25;29.30;30.10
81216;DHT22;70688;52.492;13.420;2023-06-22T13:19:50;29.40;30.00
81216;DHT22;70688;52.492;13.420;2023-06-22T13:22:32;29.50;29.80
81216;DHT22;70688;52.492;13.420;2023-06-22T13:25:00;29.50;30.00
81216;DHT22;70688;52.492;13.420;2023-06-22T13:27:26;29.30;29.70
81216;DHT22;70688;52.492;13.420;2023-06-22T13:29:52;29.30;29.80
81216;DHT22;70688;52.492;13.420;2023-06-22T13:32:18;29.40;29.70
81216;DHT22;70688;52.492;13.420;2023-06-22T13:34:44;29.20;29.70
81216;DHT22;70688;52.492;13.420;2023-06-22T13:37:09;29.10;30.00
81216;DHT22;70688;52.492;13.420;2023-06-22T13:39:35;29.10;30.10
81216;DHT22;70688;52.492;13.420;2023-06-22T13:42:00;29.00;30.10
81216;DHT22;70688;52.492;13.420;2023-06-22T13:44:26;28.90;30.40
81216;DHT22;70688;52.492;13.420;2023-06-22T13:46:54;28.50;31.10
81216;DHT22;70688;52.492;13.420;2023-06-22T13:49:20;28.40;31.40
81216;DHT22;70688;52.492;13.420;2023-06-22T13:51:47;28.70;31.20
81216;DHT22;70688;52.492;13.420;2023-06-22T13:54:13;28.80;31.00
81216;DHT22;70688;52.492;13.420;2023-06-22T13:56:39;28.80;30.90
81216;DHT22;70688;52.492;13.420;2023-06-22T13:59:05;28.90;30.90
81216;DHT22;70688;52.492;13.420;2023-06-22T14:01:32;29.10;31.00
81216;DHT22;70688;52.492;13.420;2023-06-22T14:03:57;29.10;30.20
81216;DHT22;70688;52.492;13.420;2023-06-22T14:06:23;29.00;30.60
81216;DHT22;70688;52.492;13.420;2023-06-22T14:08:48;29.00;30.50
81216;DHT22;70688;52.492;13.420;2023-06-22T14:11:16;28.90;30.90
81216;DHT22;70688;52.492;13.420;2023-06-22T14:13:41;28.80;31.50
81216;DHT22;70688;52.492;13.420;2023-06-22T14:16:08;28.80;31.30
81216;DHT22;70688;52.492;13.420;2023-06-22T14:18:33;28.90;31.50
81216;DHT22;70688;52.492;13.420;2023-06-22T14:20:59;29.00;31.50
81216;DHT22;70688;52.492;13.420;2023-06-22T14:23:25;28.90;30.90
81216;DHT22;70688;52.492;13.420;2023-06-22T14:25:50;28.80;31.70
81216;DHT22;70688;52.492;13.420;2023-06-22T14:28:16;29.00;30.90
81216;DHT22;70688;52.492;13.420;2023-06-22T14:30:42;28.90;31.20
81216;DHT22;70688;52.492;13.420;2023-06-22T14:33:07;28.90;31.30
81216;DHT22;70688;52.492;13.420;2023-06-22T14:35:33;29.00;30.70
81216;DHT22;70688;52.492;13.420;2023-06-22T14:37:59;29.10;30.80
81216;DHT22;70688;52.492;13.420;2023-06-22T14:40:24;29.00;31.00
81216;DHT22;70688;52.492;13.420;2023-06-22T14:42:50;29.10;30.60
81216;DHT22;70688;52.492;13.420;2023-06-22T14:45:15;28.90;31.40
81216;DHT22;70688;52.492;13.420;2023-06-22T14:47:41;28.90;31.30
81216;DHT22;70688;52.492;13.420;2023-06-22T14:50:07;29.00;31.10
81216;DHT22;70688;52.492;13.420;2023-06-22T14:52:32;28.90;31.20
81216;DHT22;70688;52.492;13.420;2023-06-22T14:54:58;28.90;32.40
81216;DHT22;70688;52.492;13.420;2023-06-22T14:57:23;28.80;31.70
81216;DHT22;70688;52.492;13.420;2023-06-22T14:59:49;28.80;31.30
81216;DHT22;70688;52.492;13.420;2023-06-22T15:02:15;28.90;31.40
81216;DHT22;70688;52.492;13.420;2023-06-22T15:04:41;28.70;31.40
81216;DHT22;70688;52.492;13.420;2023-06-22T15:07:07;28.70;31.60
81216;DHT22;70688;52.492;13.420;2023-06-22T15:09:32;28.90;31.30
81216;DHT22;70688;52.492;13.420;2023-06-22T15:11:58;28.80;31.70
81216;DHT22;70688;52.492;13.420;2023-06-22T15:14:27;28.90;31.20
81216;DHT22;70688;52.492;13.420;2023-06-22T15:16:53;28.90;31.50